Time;durP1;ratioP1;P1;durP2;ratioP2;P2;SDS_P1;SDS_P2;PMS_P1;PMS_P2;Temp;Humidity;BMP_temperature;BMP_pressure;BME280_temperature;BME280_humidity;BME280_pressure;Samples;Min_cycle;Max_cycle;Signal;HPM_P1;HPM_P2
2022/07/23 00:03:28;;;;;;;10.33;8.17;;;28.60;47.70;;;;;;5124383;27;20624;-88
2022/07/23 00:06:46;;;;;;;9.17;8.27;;;28.50;47.30;;;;;;5146460;27;21011;-89
2022/07/23 00:17:54;;;;;;;12.03;9.23;;;27.80;48.90;;;;;;5126888;27;20470;-88
2022/07/23 00:20:23;;;;;;;11.90;8.87;;;27.90;49.50;;;;;;5120763;27;20819;-88
2022/07/23 00:22:51;;;;;;;9.43;8.53;;;27.90;49.90;;;;;;5127857;27;20476;-88
2022/07/23 00:25:18;;;;;;;9.57;8.67;;;28.00;49.80;;;;;;5124110;27;20441;-90
2022/07/23 00:27:45;;;;;;;11.90;9.80;;;28.10;49.40;;;;;;5122992;27;20445;-89
2022/07/23 00:30:13;;;;;;;11.10;10.00;;;28.20;50.00;;;;;;5120836;27;20449;-89
2022/07/23 00:32:48;;;;;;;12.40;9.10;;;28.20;49.60;;;;;;5117580;27;20461;-89
2022/07/23 00:35:15;;;;;;;11.50;8.33;;;28.30;49.70;;;;;;5114403;27;20447;-89
2022/07/23 00:37:43;;;;;;;9.60;8.70;;;28.30;49.60;;;;;;5125565;27;20466;-88
2022/07/23 00:40:11;;;;;;;12.10;8.50;;;28.40;49.60;;;;;;5111735;27;20480;-90
2022/07/23 01:07:45;;;;;;;9.77;8.87;;;28.00;50.10;;;;;;5123516;27;20429;-89
2022/07/23 01:11:03;;;;;;;9.90;8.93;;;27.90;49.40;;;;;;5138213;27;21003;-89
2022/07/23 01:22:35;;;;;;;10.07;8.30;;;27.90;50.00;;;;;;5125957;27;21141;-89
2022/07/23 01:25:02;;;;;;;10.17;8.47;;;27.80;50.30;;;;;;5125723;27;20444;-90
2022/07/23 01:30:48;;;;;;;14.57;9.40;;;27.70;50.50;;;;;;5109494;27;20432;-89
2022/07/23 01:33:16;;;;;;;10.20;8.37;;;26.60;53.00;;;;;;5083381;27;20467;-89
2022/07/23 01:36:33;;;;;;;9.63;8.73;;;26.70;52.80;;;;;;5106548;27;20445;-88
2022/07/23 01:39:01;;;;;;;9.40;8.43;;;27.00;52.20;;;;;;5107756;27;20457;-88
2022/07/23 01:41:28;;;;;;;12.57;9.33;;;27.20;51.50;;;;;;5106575;27;20897;-89
2022/07/23 01:46:47;;;;;;;10.07;9.07;;;27.50;51.00;;;;;;5116405;27;20444;-90
2022/07/23 02:07:21;;;;;;;10.87;9.33;;;27.40;51.40;;;;;;5118791;27;20459;-89
2022/07/23 02:10:13;;;;;;;10.17;8.80;;;27.50;51.90;;;;;;5105573;27;20520;-90
2022/07/23 02:12:40;;;;;;;10.77;9.30;;;27.50;51.70;;;;;;5117805;27;20510;-90
2022/07/23 02:15:10;;;;;;;11.47;8.83;;;27.60;51.40;;;;;;5106877;27;20457;-89
2022/07/23 02:21:46;;;;;;;10.93;9.10;;;27.60;50.90;;;;;;5129378;27;20464;-89
2022/07/23 02:24:38;;;;;;;11.27;9.10;;;27.50;51.00;;;;;;5122623;27;20452;-89
2022/07/23 02:27:05;;;;;;;9.13;8.20;;;27.40;51.50;;;;;;5116400;27;20451;-90
2022/07/23 02:30:24;;;;;;;10.40;9.30;;;27.40;51.10;;;;;;5110173;27;20433;-89
2022/07/23 02:32:50;;;;;;;10.97;9.17;;;27.50;51.30;;;;;;5109904;27;20475;-89
2022/07/23 02:38:44;;;;;;;13.93;9.33;;;27.40;51.50;;;;;;5110993;27;20440;-90
2022/07/23 02:41:12;;;;;;;12.80;9.67;;;27.40;51.60;;;;;;5103291;27;20457;-89
2022/07/23 02:43:39;;;;;;;12.70;9.47;;;27.40;51.80;;;;;;5107281;27;21097;-89
2022/07/23 02:46:31;;;;;;;11.60;8.50;;;27.30;51.80;;;;;;5123891;27;20465;-90
2022/07/23 02:48:59;;;;;;;11.20;8.67;;;27.40;51.70;;;;;;5115391;27;20459;-89
2022/07/23 02:51:26;;;;;;;10.43;9.20;;;27.40;51.80;;;;;;5083861;27;20445;-89
2022/07/23 02:53:59;;;;;;;11.20;9.47;;;27.40;51.80;;;;;;5102403;27;20467;-87
2022/07/23 02:56:26;;;;;;;10.07;8.87;;;27.40;51.50;;;;;;5109064;27;20881;-88
2022/07/23 02:58:53;;;;;;;10.83;9.17;;;27.40;51.30;;;;;;5107645;27;20448;-89
2022/07/23 03:01:21;;;;;;;10.73;8.67;;;27.40;51.50;;;;;;5106210;27;20594;-89
2022/07/23 03:04:13;;;;;;;12.73;9.17;;;27.40;51.40;;;;;;5095399;27;20441;-88
2022/07/23 03:07:33;;;;;;;11.50;9.00;;;27.40;51.50;;;;;;5102578;27;20605;-90
2022/07/23 03:10:26;;;;;;;11.10;9.30;;;27.30;51.20;;;;;;5141214;27;20617;-88
2022/07/23 03:12:53;;;;;;;10.73;9.30;;;27.20;51.00;;;;;;5101892;27;20475;-89
2022/07/23 03:19:01;;;;;;;10.43;8.70;;;27.10;51.40;;;;;;5146881;27;20444;-88
2022/07/23 03:21:28;;;;;;;10.43;9.17;;;27.10;51.80;;;;;;5093523;27;20548;-89
2022/07/23 03:23:55;;;;;;;11.33;10.23;;;26.90;51.80;;;;;;5129342;27;20440;-87
2022/07/23 03:27:12;;;;;;;10.67;9.57;;;26.90;51.80;;;;;;5124837;27;20448;-88
2022/07/23 03:32:59;;;;;;;10.93;8.53;;;26.90;51.50;;;;;;5101163;27;20827;-89
2022/07/23 03:36:17;;;;;;;10.77;9.13;;;27.00;51.60;;;;;;5123412;27;20463;-89
2022/07/23 03:38:46;;;;;;;9.70;8.70;;;27.10;51.30;;;;;;5113513;27;20444;-88
2022/07/23 03:42:04;;;;;;;10.47;8.33;;;27.10;51.30;;;;;;5110830;27;20463;-88
2022/07/23 03:44:56;;;;;;;10.90;9.80;;;27.00;52.00;;;;;;5109845;27;20433;-88
2022/07/23 03:47:25;;;;;;;9.80;8.67;;;26.90;52.50;;;;;;5109283;27;20501;-89
2022/07/23 03:49:52;;;;;;;10.27;9.00;;;26.80;52.20;;;;;;5129090;27;20452;-89
2022/07/23 03:52:19;;;;;;;10.40;9.40;;;26.80;52.70;;;;;;5110581;27;20464;-89
2022/07/23 03:54:46;;;;;;;11.13;9.10;;;26.70;53.00;;;;;;5127555;27;20970;-88
2022/07/23 03:57:12;;;;;;;9.90;8.90;;;26.80;53.30;;;;;;5110493;27;20453;-88
2022/07/23 03:59:39;;;;;;;12.50;9.10;;;26.80;52.90;;;;;;5108546;27;20553;-87
2022/07/23 04:02:33;;;;;;;10.23;9.23;;;26.40;53.60;;;;;;5084753;27;20490;-87
2022/07/23 04:05:00;;;;;;;11.60;9.30;;;25.90;55.40;;;;;;5143524;27;20441;-88
2022/07/23 04:07:28;;;;;;;11.33;10.00;;;26.00;55.10;;;;;;5090614;27;20831;-89
2022/07/23 04:09:55;;;;;;;11.23;10.10;;;26.10;54.70;;;;;;5133197;27;21083;-88
2022/07/23 04:16:31;;;;;;;11.53;10.13;;;26.50;54.40;;;;;;5121058;27;20425;-89
2022/07/23 04:18:59;;;;;;;11.00;9.83;;;26.60;53.40;;;;;;5097968;27;20539;-88
2022/07/23 04:21:29;;;;;;;12.33;9.90;;;26.60;54.00;;;;;;5112385;27;21039;-85
2022/07/23 04:24:22;;;;;;;12.67;9.93;;;26.60;53.90;;;;;;5141834;27;20444;-88
2022/07/23 04:30:57;;;;;;;14.30;9.93;;;26.70;54.10;;;;;;5143444;27;21208;-88
2022/07/23 04:33:24;;;;;;;12.90;10.30;;;26.70;54.10;;;;;;5125603;27;20583;-89
2022/07/23 04:35:55;;;;;;;13.47;10.50;;;26.60;54.20;;;;;;5094437;27;20464;-88
2022/07/23 04:41:39;;;;;;;10.83;9.73;;;26.60;54.30;;;;;;5142432;27;20491;-87
2022/07/23 04:44:31;;;;;;;11.53;9.93;;;26.50;54.50;;;;;;5094183;27;20531;-90
2022/07/23 04:47:50;;;;;;;12.90;10.53;;;26.60;54.90;;;;;;5114529;27;20453;-88
2022/07/23 04:50:43;;;;;;;11.77;10.57;;;26.50;54.80;;;;;;5106591;27;20531;-88
2022/07/23 04:53:19;;;;;;;11.63;10.43;;;26.60;54.80;;;;;;5121985;27;20971;-88
2022/07/23 04:55:48;;;;;;;11.70;10.50;;;26.70;54.40;;;;;;5114152;27;20437;-90
2022/07/23 04:58:15;;;;;;;12.20;10.90;;;26.70;54.50;;;;;;5104291;27;20535;-87
2022/07/23 05:00:42;;;;;;;12.70;11.10;;;26.60;54.90;;;;;;5125567;27;20557;-88
2022/07/23 05:03:09;;;;;;;13.43;10.90;;;26.50;54.70;;;;;;5128125;27;20543;-90
2022/07/23 05:05:36;;;;;;;11.27;10.07;;;26.50;54.10;;;;;;5112370;27;20865;-88
2022/07/23 05:11:04;;;;;;;11.90;9.03;;;26.60;53.50;;;;;;5123888;27;20444;-88
2022/07/23 05:14:22;;;;;;;12.23;9.80;;;26.50;53.80;;;;;;5103529;27;20840;-88
2022/07/23 05:16:50;;;;;;;10.87;9.47;;;26.50;53.50;;;;;;5107954;27;20455;-90
2022/07/23 05:19:22;;;;;;;11.57;9.37;;;26.40;53.60;;;;;;5105625;27;20445;-88
2022/07/23 05:21:49;;;;;;;11.50;9.70;;;26.40;53.60;;;;;;5090293;27;20480;-88
2022/07/23 05:24:17;;;;;;;10.20;8.30;;;26.10;53.30;;;;;;5119144;27;20964;-88
2022/07/23 05:26:45;;;;;;;11.43;8.23;;;25.90;53.80;;;;;;5124799;27;20461;-88
2022/07/23 05:29:13;;;;;;;10.37;8.20;;;25.90;54.00;;;;;;5118386;27;20460;-89
2022/07/23 05:32:30;;;;;;;9.07;8.10;;;25.70;54.30;;;;;;5142399;27;20503;-88
2022/07/23 05:35:08;;;;;;;10.33;8.30;;;25.50;55.30;;;;;;5097716;27;20449;-88
2022/07/23 05:37:39;;;;;;;11.83;10.00;;;25.50;55.80;;;;;;5100538;27;20459;-88
2022/07/23 05:40:31;;;;;;;11.90;9.73;;;25.50;56.20;;;;;;5124654;27;20522;-89
2022/07/23 05:46:16;;;;;;;9.17;7.93;;;25.40;56.40;;;;;;5101004;27;20444;-89
2022/07/23 05:48:49;;;;;;;13.63;9.03;;;25.50;56.20;;;;;;5121275;27;20501;-87
2022/07/23 05:51:42;;;;;;;9.40;7.97;;;25.60;56.30;;;;;;5085191;27;20479;-88
2022/07/23 05:54:35;;;;;;;7.27;6.57;;;25.90;55.50;;;;;;5122616;27;20445;-88
2022/07/23 05:57:02;;;;;;;8.40;7.60;;;26.00;54.80;;;;;;5124335;27;20445;-88
2022/07/23 05:59:30;;;;;;;10.67;7.40;;;26.20;54.40;;;;;;5107154;27;20986;-88
2022/07/23 06:01:57;;;;;;;7.43;6.50;;;26.20;53.70;;;;;;5091599;27;20476;-88
2022/07/23 06:04:24;;;;;;;9.30;7.10;;;26.10;53.50;;;;;;5101227;27;20948;-89
2022/07/23 06:07:09;;;;;;;7.50;6.80;;;26.10;53.80;;;;;;5112828;27;20582;-88
2022/07/23 06:10:26;;;;;;;9.10;6.63;;;26.00;53.40;;;;;;5120191;27;20562;-86
2022/07/23 06:12:53;;;;;;;11.03;6.67;;;25.80;53.20;;;;;;5089250;27;20468;-89
2022/07/23 06:15:21;;;;;;;7.67;6.43;;;25.90;53.40;;;;;;5106409;27;20543;-87
2022/07/23 06:17:48;;;;;;;7.13;5.87;;;25.80;53.20;;;;;;5113008;27;20441;-87
2022/07/23 06:20:15;;;;;;;10.10;6.73;;;25.90;53.70;;;;;;5116834;27;20441;-89
2022/07/23 06:22:43;;;;;;;7.37;6.40;;;25.70;53.50;;;;;;5123450;27;20546;-87
2022/07/23 06:25:10;;;;;;;7.60;6.13;;;25.80;53.70;;;;;;5121353;27;20481;-87
2022/07/23 06:27:37;;;;;;;5.93;5.37;;;25.80;53.70;;;;;;5121317;27;20460;-87
2022/07/23 06:30:30;;;;;;;10.10;6.20;;;25.90;54.00;;;;;;5123634;27;20462;-88
2022/07/23 06:32:57;;;;;;;8.13;7.23;;;25.90;54.30;;;;;;5100337;27;20488;-87
2022/07/23 06:35:24;;;;;;;8.67;6.33;;;25.70;54.10;;;;;;5087951;27;20520;-88
2022/07/23 06:37:51;;;;;;;8.23;7.43;;;25.40;55.20;;;;;;5120683;27;20453;-88
2022/07/23 06:40:18;;;;;;;8.83;7.00;;;25.40;55.50;;;;;;5107050;27;21113;-88
2022/07/23 06:42:45;;;;;;;9.20;7.40;;;25.40;55.60;;;;;;5123857;27;20475;-88
2022/07/23 06:45:18;;;;;;;9.90;8.40;;;25.50;55.80;;;;;;5089889;27;20436;-89
2022/07/23 06:52:18;;;;;;;8.47;7.53;;;25.40;56.50;;;;;;5143663;27;20846;-89
2022/07/23 06:55:38;;;;;;;10.80;8.10;;;25.40;57.50;;;;;;5119605;27;20948;-88
2022/07/23 06:58:42;;;;;;;9.00;7.70;;;25.50;56.80;;;;;;5136461;27;20443;-87
2022/07/23 07:01:09;;;;;;;8.30;7.40;;;25.60;56.00;;;;;;5120069;27;20982;-89
2022/07/23 07:03:36;;;;;;;9.57;6.33;;;25.70;55.80;;;;;;5114368;27;20464;-88
2022/07/23 07:06:28;;;;;;;14.23;7.63;;;25.80;55.50;;;;;;5135826;27;20453;-88
2022/07/23 07:08:57;;;;;;;9.03;7.83;;;26.00;55.20;;;;;;5139583;27;20444;-88
2022/07/23 07:11:25;;;;;;;9.67;8.67;;;26.10;55.10;;;;;;5103575;27;20449;-89
2022/07/23 07:13:52;;;;;;;10.30;8.50;;;26.10;55.20;;;;;;5117557;27;20455;-89
2022/07/23 07:16:19;;;;;;;8.67;7.80;;;26.10;55.00;;;;;;5141972;27;20444;-87
2022/07/23 07:18:46;;;;;;;8.80;7.20;;;26.20;54.90;;;;;;5025806;27;20483;-88
2022/07/23 07:21:13;;;;;;;9.10;8.03;;;26.10;55.00;;;;;;5136193;27;20453;-88
2022/07/23 07:23:40;;;;;;;8.00;7.27;;;26.10;54.60;;;;;;5137562;27;20456;-88
2022/07/23 07:26:34;;;;;;;10.77;7.53;;;26.10;54.90;;;;;;5139188;27;21090;-86
2022/07/23 07:29:01;;;;;;;12.80;8.83;;;26.20;54.60;;;;;;5118060;27;20459;-89
2022/07/23 07:31:28;;;;;;;9.47;8.10;;;26.20;54.20;;;;;;5120422;27;20728;-89
2022/07/23 07:33:56;;;;;;;8.30;7.50;;;26.10;54.80;;;;;;5125552;27;20544;-90
2022/07/23 07:36:23;;;;;;;10.20;8.30;;;25.80;55.20;;;;;;5097622;27;20516;-90
2022/07/23 07:38:50;;;;;;;11.90;8.30;;;26.00;55.30;;;;;;5132678;27;20452;-91
2022/07/23 07:42:08;;;;;;;9.70;8.70;;;26.20;55.00;;;;;;5123643;27;21246;-89
2022/07/23 07:45:02;;;;;;;10.47;8.40;;;26.60;54.10;;;;;;5120285;27;20444;-88
2022/07/23 07:47:29;;;;;;;7.80;7.07;;;26.80;52.90;;;;;;5117249;27;20565;-88
2022/07/23 07:49:56;;;;;;;8.00;7.30;;;26.90;52.40;;;;;;5123959;27;20456;-91
2022/07/23 07:52:23;;;;;;;8.37;7.57;;;27.10;52.50;;;;;;5120932;27;20465;-90
2022/07/23 07:54:50;;;;;;;8.30;7.03;;;27.10;52.00;;;;;;5111567;27;20532;-90
2022/07/23 07:57:17;;;;;;;8.73;6.30;;;26.80;52.70;;;;;;5123802;27;20452;-87
2022/07/23 07:59:44;;;;;;;7.87;6.70;;;26.70;52.60;;;;;;5123821;27;20462;-88
2022/07/23 08:06:42;;;;;;;6.87;6.23;;;26.80;53.30;;;;;;5136789;27;20429;-89
2022/07/23 08:09:09;;;;;;;7.97;7.17;;;26.70;52.90;;;;;;5105376;27;20460;-90
2022/07/23 08:12:26;;;;;;;10.47;7.13;;;26.80;53.10;;;;;;5140309;27;21173;-90
2022/07/23 08:14:53;;;;;;;8.80;7.20;;;26.90;52.50;;;;;;5110041;27;20461;-89
2022/07/23 08:17:20;;;;;;;7.93;7.20;;;27.00;52.60;;;;;;5115180;27;20910;-88
2022/07/23 08:19:47;;;;;;;8.07;6.77;;;26.90;52.80;;;;;;5139921;27;20824;-89
2022/07/23 08:22:15;;;;;;;8.33;7.50;;;27.00;52.60;;;;;;5134254;27;20469;-89
2022/07/23 08:24:42;;;;;;;7.77;7.07;;;26.80;52.80;;;;;;5125532;27;20563;-89
2022/07/23 08:27:09;;;;;;;9.00;7.40;;;26.80;52.80;;;;;;5117826;27;20436;-89
2022/07/23 08:29:36;;;;;;;11.33;7.20;;;26.70;52.90;;;;;;5140787;27;20448;-89
2022/07/23 08:32:29;;;;;;;8.10;7.17;;;26.60;53.10;;;;;;5142750;27;20483;-89
2022/07/23 08:34:56;;;;;;;7.97;7.17;;;26.90;53.00;;;;;;5125813;27;20460;-90
2022/07/23 08:38:14;;;;;;;10.23;7.00;;;26.80;52.80;;;;;;5123836;27;20826;-88
2022/07/23 08:40:44;;;;;;;7.10;6.40;;;26.80;52.80;;;;;;5113197;27;20451;-89
2022/07/23 08:50:49;;;;;;;8.07;6.33;;;26.90;52.70;;;;;;5142944;27;20444;-90
2022/07/23 08:53:17;;;;;;;9.10;6.40;;;27.10;52.10;;;;;;5112364;27;20559;-89
2022/07/23 08:55:46;;;;;;;13.87;6.07;;;26.80;53.20;;;;;;5125747;27;20972;-89
2022/07/23 08:58:14;;;;;;;9.70;7.47;;;27.00;53.10;;;;;;5124450;27;20457;-88
2022/07/23 09:00:42;;;;;;;7.43;6.67;;;27.10;52.40;;;;;;5118048;27;20456;-89
2022/07/23 09:03:17;;;;;;;6.40;5.80;;;27.30;51.80;;;;;;5111899;27;20465;-90
2022/07/23 09:05:44;;;;;;;9.07;7.20;;;27.40;52.10;;;;;;5126192;27;20448;-89
2022/07/23 09:08:13;;;;;;;8.73;6.97;;;27.10;52.00;;;;;;5123787;27;20441;-89
2022/07/23 09:10:47;;;;;;;12.40;6.70;;;27.30;53.00;;;;;;5129036;27;20455;-89
2022/07/23 09:13:25;;;;;;;9.10;6.60;;;27.50;52.00;;;;;;5127460;27;20467;-89
2022/07/23 09:15:54;;;;;;;9.93;7.10;;;27.60;51.30;;;;;;5139145;27;20532;-89
2022/07/23 09:18:30;;;;;;;7.30;6.60;;;27.70;50.60;;;;;;5124231;27;20962;-91
2022/07/23 09:21:11;;;;;;;7.90;7.10;;;27.70;51.30;;;;;;5117864;27;20441;-89
2022/07/23 09:24:29;;;;;;;8.80;7.30;;;27.90;50.60;;;;;;5128184;27;20788;-89
2022/07/23 09:26:59;;;;;;;8.80;7.87;;;28.40;49.30;;;;;;5102427;27;20456;-88
2022/07/23 09:29:26;;;;;;;7.57;6.80;;;28.30;49.30;;;;;;5137453;27;20451;-89
2022/07/23 09:31:55;;;;;;;9.43;7.33;;;28.30;49.00;;;;;;5106901;27;20493;-89
2022/07/23 09:34:24;;;;;;;8.97;6.97;;;28.40;49.00;;;;;;5103947;27;20453;-87
2022/07/23 09:36:53;;;;;;;9.33;6.67;;;28.80;48.90;;;;;;5110771;27;20480;-89
2022/07/23 09:39:27;;;;;;;8.67;7.53;;;29.20;47.70;;;;;;5123091;27;20459;-88
2022/07/23 09:41:54;;;;;;;9.17;7.20;;;29.30;46.40;;;;;;5122978;27;20468;-89
2022/07/23 09:44:23;;;;;;;10.30;7.10;;;29.30;46.30;;;;;;5122819;27;20464;-87
2022/07/23 09:51:03;;;;;;;10.20;6.97;;;29.30;47.50;;;;;;5106434;27;20417;-88
2022/07/23 09:54:20;;;;;;;10.30;6.90;;;29.60;46.30;;;;;;5139638;27;20465;-90
2022/07/23 09:56:49;;;;;;;6.73;6.00;;;29.50;45.90;;;;;;5104964;27;20676;-89
2022/07/23 09:59:18;;;;;;;7.50;6.80;;;29.50;46.00;;;;;;5109768;27;20527;-88
2022/07/23 10:01:46;;;;;;;9.40;7.30;;;29.30;45.70;;;;;;5114765;27;20500;-87
2022/07/23 10:04:15;;;;;;;8.00;7.20;;;29.30;46.40;;;;;;5137288;27;20453;-87
2022/07/23 10:07:02;;;;;;;7.83;6.90;;;29.40;46.40;;;;;;5142402;27;20836;-86
2022/07/23 10:09:52;;;;;;;9.80;6.80;;;29.50;45.70;;;;;;5135121;27;20451;-88
2022/07/23 10:13:04;;;;;;;7.87;7.10;;;29.60;46.00;;;;;;5071243;27;20455;-88
2022/07/23 10:15:32;;;;;;;7.50;6.90;;;29.60;46.10;;;;;;5107536;27;21016;-87
2022/07/23 10:21:25;;;;;;;7.90;7.13;;;30.00;45.40;;;;;;5124508;27;20436;-88
2022/07/23 10:24:21;;;;;;;8.10;7.27;;;30.20;45.30;;;;;;5084218;27;20453;-89
2022/07/23 10:26:56;;;;;;;8.63;7.80;;;30.20;45.40;;;;;;5122092;27;20445;-88
2022/07/23 10:30:13;;;;;;;9.57;7.43;;;30.10;45.40;;;;;;5118629;27;20962;-87
2022/07/23 10:32:48;;;;;;;8.10;7.00;;;30.10;45.30;;;;;;5101318;27;20823;-88
2022/07/23 10:35:26;;;;;;;8.97;7.70;;;30.30;45.20;;;;;;5122173;27;20452;-87
2022/07/23 10:38:01;;;;;;;8.53;7.70;;;30.30;44.10;;;;;;5139996;27;20437;-88
2022/07/23 10:41:44;;;;;;;8.60;7.00;;;30.00;44.60;;;;;;5140285;27;20486;-88
2022/07/23 10:44:42;;;;;;;10.67;8.60;;;30.20;44.90;;;;;;5122689;27;20601;-88
2022/07/23 10:50:22;;;;;;;9.43;8.60;;;30.00;44.90;;;;;;5051235;27;20993;-87
2022/07/23 10:57:10;;;;;;;8.00;6.50;;;30.60;43.20;;;;;;5142389;27;20425;-89
2022/07/23 11:00:28;;;;;;;9.63;7.77;;;30.90;43.70;;;;;;5124638;27;20452;-87
2022/07/23 11:02:57;;;;;;;7.50;6.80;;;30.90;43.00;;;;;;5123565;27;20473;-89
2022/07/23 11:06:15;;;;;;;9.93;7.43;;;30.90;43.40;;;;;;5114020;27;20455;-88
2022/07/23 11:21:36;;;;;;;8.97;7.10;;;31.90;41.00;;;;;;5139922;27;21245;-88
2022/07/23 11:24:07;;;;;;;8.60;7.70;;;32.20;39.40;;;;;;5119954;27;20460;-88
2022/07/23 11:30:43;;;;;;;8.30;7.40;;;32.60;38.10;;;;;;5145052;27;20455;-88
2022/07/23 11:33:19;;;;;;;8.37;7.50;;;32.40;37.80;;;;;;5123822;27;20585;-89
2022/07/23 11:39:56;;;;;;;7.87;7.13;;;31.70;39.40;;;;;;5141505;27;20448;-89
2022/07/23 11:46:58;;;;;;;8.40;7.60;;;31.90;38.80;;;;;;5124056;27;20417;-88
2022/07/23 11:49:25;;;;;;;7.90;7.03;;;31.80;39.60;;;;;;5122658;27;20437;-88
2022/07/23 12:10:23;;;;;;;7.90;7.10;;;31.40;39.50;;;;;;5142356;27;20423;-87
2022/07/23 12:22:48;;;;;;;7.53;6.77;;;31.20;38.40;;;;;;5124904;27;20528;-87
2022/07/23 12:25:17;;;;;;;7.90;7.10;;;31.60;39.20;;;;;;5115097;27;20874;-88
2022/07/23 12:36:00;;;;;;;8.93;7.70;;;31.70;37.70;;;;;;5141855;27;21196;-90
2022/07/23 12:51:16;;;;;;;7.27;6.67;;;31.80;38.80;;;;;;5134760;27;20433;-89
2022/07/23 13:01:59;;;;;;;8.33;7.53;;;32.50;36.80;;;;;;5109738;27;21291;-88
2022/07/23 13:04:27;;;;;;;7.57;6.90;;;32.70;36.10;;;;;;5137041;27;20469;-89
2022/07/23 13:07:44;;;;;;;7.60;6.90;;;32.50;35.90;;;;;;5140920;27;20441;-92
2022/07/23 13:18:50;;;;;;;7.53;6.40;;;32.50;36.00;;;;;;5144766;27;20425;-87
2022/07/23 13:21:17;;;;;;;7.57;6.80;;;32.80;35.60;;;;;;5105036;27;20452;-87
2022/07/23 13:27:00;;;;;;;7.20;6.50;;;33.00;34.30;;;;;;5144892;27;20537;-90
2022/07/23 13:42:15;;;;;;;7.63;6.93;;;33.10;33.00;;;;;;5144234;27;20543;-87
2022/07/23 14:07:49;;;;;;;7.90;6.43;;;32.80;33.70;;;;;;5136083;27;20428;-87
2022/07/23 14:11:06;;;;;;;6.33;5.77;;;33.10;34.00;;;;;;5121062;27;20441;-87
2022/07/23 14:18:05;;;;;;;6.20;5.60;;;33.10;33.50;;;;;;5120523;27;20441;-87
2022/07/23 14:45:16;;;;;;;5.80;5.30;;;33.30;31.60;;;;;;5102957;27;20560;-88
2022/07/23 14:47:43;;;;;;;7.20;5.53;;;33.00;31.70;;;;;;5121743;27;20452;-87
2022/07/23 14:51:01;;;;;;;7.10;6.50;;;33.00;31.50;;;;;;5139092;27;20456;-88
2022/07/23 14:58:51;;;;;;;9.67;6.10;;;33.10;32.60;;;;;;5137479;27;20851;-88
2022/07/23 15:05:27;;;;;;;7.17;5.77;;;33.20;31.30;;;;;;5134540;27;20437;-89
2022/07/23 15:07:54;;;;;;;6.30;5.70;;;33.20;30.40;;;;;;5092849;27;20436;-88
2022/07/23 15:19:54;;;;;;;6.93;6.33;;;33.10;31.20;;;;;;5125641;27;20439;-92
2022/07/23 15:22:23;;;;;;;6.20;5.60;;;32.90;31.30;;;;;;5090633;27;21000;-87
2022/07/23 15:25:40;;;;;;;6.40;5.87;;;33.10;30.40;;;;;;5123152;27;20480;-88
2022/07/23 15:29:26;;;;;;;5.60;5.10;;;33.20;31.00;;;;;;5078228;27;20583;-87
2022/07/23 15:32:43;;;;;;;6.77;5.83;;;33.30;30.00;;;;;;5140485;27;20481;-88
2022/07/23 15:39:43;;;;;;;7.00;6.10;;;33.10;30.60;;;;;;5124593;27;20417;-89
2022/07/23 15:46:18;;;;;;;7.30;5.50;;;33.40;30.30;;;;;;5139228;27;20443;-88
2022/07/23 15:48:45;;;;;;;6.90;6.30;;;33.40;29.60;;;;;;5122553;27;20449;-89
2022/07/23 16:20:30;;;;;;;6.13;5.33;;;32.20;30.20;;;;;;5147696;27;20436;-89
2022/07/23 16:27:04;;;;;;;5.67;5.17;;;32.30;30.00;;;;;;5123642;27;20432;-89
2022/07/23 16:29:30;;;;;;;5.80;5.40;;;32.30;29.90;;;;;;5122370;27;20457;-87
2022/07/23 16:32:23;;;;;;;5.93;5.43;;;32.40;29.90;;;;;;5127809;27;20476;-87
2022/07/23 16:34:50;;;;;;;6.77;6.13;;;32.50;30.50;;;;;;5126541;27;20449;-88
2022/07/23 16:37:18;;;;;;;5.70;5.30;;;32.70;29.80;;;;;;5142612;27;20455;-88
2022/07/23 16:39:45;;;;;;;5.40;4.90;;;32.80;29.80;;;;;;5145604;27;20452;-89
2022/07/23 17:33:13;;;;;;;5.30;4.77;;;32.00;30.00;;;;;;5144392;27;20445;-87
2022/07/23 17:48:31;;;;;;;10.00;5.30;;;32.10;30.30;;;;;;5144513;27;20500;-88
2022/07/23 17:58:49;;;;;;;8.13;5.57;;;32.40;30.10;;;;;;5143828;27;20481;-87
2022/07/23 18:01:16;;;;;;;6.77;5.83;;;32.40;30.00;;;;;;5106640;27;20479;-87
2022/07/23 18:04:34;;;;;;;11.13;5.03;;;32.50;30.20;;;;;;5139055;27;20473;-88
2022/07/23 18:07:02;;;;;;;6.80;5.10;;;32.50;29.90;;;;;;5120672;27;20460;-88
2022/07/23 18:09:29;;;;;;;7.43;5.30;;;32.50;30.00;;;;;;5118825;27;20457;-88
2022/07/23 18:11:56;;;;;;;11.53;6.10;;;32.50;30.10;;;;;;5141888;27;20525;-88
2022/07/23 18:14:24;;;;;;;10.03;6.77;;;32.50;30.10;;;;;;5134550;27;20580;-89
2022/07/23 18:16:51;;;;;;;17.80;6.20;;;32.50;30.20;;;;;;5143023;27;20440;-90
2022/07/23 18:19:18;;;;;;;13.33;8.07;;;32.50;30.00;;;;;;5086950;27;20449;-88
2022/07/23 18:21:45;;;;;;;9.50;5.73;;;32.50;30.30;;;;;;5108578;27;20465;-88
2022/07/23 18:24:15;;;;;;;5.87;5.27;;;32.40;30.40;;;;;;5135665;27;20476;-90
2022/07/23 18:26:42;;;;;;;6.00;5.40;;;32.40;30.80;;;;;;5129506;27;20663;-89
2022/07/23 18:29:09;;;;;;;5.50;4.80;;;32.40;31.10;;;;;;5137998;27;20460;-88
2022/07/23 18:31:36;;;;;;;6.00;5.00;;;32.40;31.30;;;;;;5124469;27;20449;-89
2022/07/23 18:40:15;;;;;;;6.07;5.47;;;32.30;31.70;;;;;;5121741;27;21493;-91
2022/07/23 18:42:42;;;;;;;5.80;5.17;;;32.20;31.40;;;;;;5045180;27;20564;-88
2022/07/23 18:45:11;;;;;;;13.97;5.20;;;32.10;31.50;;;;;;5123615;27;20480;-88
2022/07/23 18:47:39;;;;;;;6.03;5.50;;;32.10;31.40;;;;;;5105365;27;20817;-88
2022/07/23 18:50:31;;;;;;;5.60;4.77;;;32.10;32.30;;;;;;5142282;27;20452;-89
2022/07/23 18:52:58;;;;;;;6.90;4.93;;;32.10;32.10;;;;;;5141954;27;20482;-89
2022/07/23 18:55:26;;;;;;;5.83;5.27;;;32.00;32.20;;;;;;5121547;27;20445;-88
2022/07/23 18:57:54;;;;;;;5.77;5.20;;;32.00;32.90;;;;;;5148037;27;20851;-88
2022/07/23 19:00:22;;;;;;;6.83;4.90;;;31.90;33.40;;;;;;5106803;27;20441;-89
2022/07/23 19:02:49;;;;;;;5.50;4.80;;;31.90;33.30;;;;;;5118938;27;20473;-89
2022/07/23 19:05:16;;;;;;;9.60;5.10;;;31.80;33.40;;;;;;5120667;27;20463;-89
2022/07/23 19:07:43;;;;;;;5.90;5.30;;;31.70;33.40;;;;;;5130472;27;20448;-90
2022/07/23 19:10:37;;;;;;;6.43;5.20;;;31.70;33.50;;;;;;5106288;27;20433;-89
2022/07/23 19:13:05;;;;;;;6.33;5.03;;;31.60;33.30;;;;;;5124428;27;20499;-89
2022/07/23 19:15:32;;;;;;;8.57;5.07;;;31.50;33.10;;;;;;5136157;27;20874;-90
2022/07/23 19:18:00;;;;;;;6.13;5.00;;;31.00;33.00;;;;;;5108609;27;20502;-90
2022/07/23 19:20:27;;;;;;;5.90;5.20;;;30.90;33.80;;;;;;5094816;27;20437;-92
2022/07/23 19:22:54;;;;;;;12.03;5.60;;;31.00;34.10;;;;;;5130724;27;20472;-91
2022/07/23 19:26:12;;;;;;;8.57;5.10;;;30.90;34.30;;;;;;5109066;27;20465;-90
2022/07/23 19:28:41;;;;;;;5.50;5.00;;;31.00;34.50;;;;;;5136473;27;21026;-89
2022/07/23 19:35:15;;;;;;;6.30;5.00;;;30.90;34.50;;;;;;5127032;27;20420;-90
2022/07/23 19:37:42;;;;;;;11.07;5.40;;;30.80;34.90;;;;;;5129498;27;21066;-89
2022/07/23 19:40:34;;;;;;;6.97;5.70;;;30.80;35.30;;;;;;5126914;27;20936;-91
2022/07/23 19:43:01;;;;;;;5.70;5.20;;;30.80;35.40;;;;;;5137197;27;20847;-90
2022/07/23 19:46:19;;;;;;;4.97;4.47;;;30.70;35.20;;;;;;5150644;27;20464;-90
2022/07/23 19:49:12;;;;;;;5.90;5.20;;;30.70;35.50;;;;;;5110855;27;20531;-89
2022/07/23 19:55:46;;;;;;;8.60;5.53;;;30.50;35.90;;;;;;5129750;27;20794;-89
2022/07/23 19:58:13;;;;;;;6.70;5.87;;;30.40;36.10;;;;;;5130991;27;20964;-89
2022/07/23 20:00:41;;;;;;;8.13;5.27;;;30.30;36.10;;;;;;5113571;27;20449;-92
2022/07/23 20:11:27;;;;;;;5.20;4.70;;;30.20;36.90;;;;;;5131365;27;20417;-89
2022/07/23 20:13:54;;;;;;;6.63;5.90;;;30.00;36.90;;;;;;5132586;27;20448;-90
2022/07/23 20:20:29;;;;;;;7.47;5.63;;;29.90;37.00;;;;;;5132023;27;20587;-90
2022/07/23 20:22:57;;;;;;;6.17;5.60;;;29.80;37.30;;;;;;5116287;27;20476;-91
2022/07/23 20:25:24;;;;;;;6.50;5.80;;;29.70;37.10;;;;;;5112813;27;20461;-89
2022/07/23 20:31:59;;;;;;;6.27;5.67;;;29.70;37.60;;;;;;5132850;27;20455;-92
2022/07/23 20:34:26;;;;;;;5.80;5.20;;;29.60;38.00;;;;;;5126678;27;20441;-90
2022/07/23 20:43:01;;;;;;;10.13;5.83;;;29.40;38.70;;;;;;5117947;27;20543;-91
2022/07/23 20:45:28;;;;;;;7.30;5.40;;;29.40;38.40;;;;;;5128398;27;20580;-90
2022/07/23 20:47:57;;;;;;;9.47;5.90;;;29.30;38.50;;;;;;5113803;27;20791;-89
2022/07/23 20:50:25;;;;;;;6.50;5.90;;;29.30;38.60;;;;;;5123016;27;20802;-91
2022/07/23 20:52:52;;;;;;;7.90;5.90;;;29.30;38.70;;;;;;5125005;27;20469;-90
2022/07/23 20:55:19;;;;;;;7.23;6.13;;;29.20;38.90;;;;;;5129048;27;20814;-88
2022/07/23 20:57:46;;;;;;;7.47;5.90;;;29.20;38.90;;;;;;5123747;27;20460;-89
2022/07/23 21:00:16;;;;;;;7.40;5.90;;;29.20;39.00;;;;;;5109885;27;21313;-90
2022/07/23 21:02:43;;;;;;;5.90;5.30;;;29.10;39.20;;;;;;5109055;27;20453;-89
2022/07/23 21:05:12;;;;;;;6.83;5.70;;;29.00;39.30;;;;;;5107907;27;21230;-89
2022/07/23 21:10:55;;;;;;;10.67;5.93;;;28.90;39.50;;;;;;5126361;27;20445;-90
2022/07/23 21:13:22;;;;;;;7.57;5.87;;;28.80;39.40;;;;;;5132518;27;20461;-90